Calmer, Arkansas
Current Conditions -  °F | °C
As of 9:53 AM on Thursday 29 Jan 2015 (Local Time) from KPBF Reporting Station
Clear Clear  
Wind Chill: 59°   Ceiling: Unl
Heat Index: 59°   Visibility: 10mi
Dew Point: 46°   Wind: 10mph
Humidity: 62%   Direction: 250°WSW
Pressure: 30.13"   Gusts: NA
Location:  33.947°N, 92.1633°W
Report Text: KPBF 291553Z AUTO 25009KT 10SM CLR 15/08 A3013 RMK AO2 SLP202 T01500078
Loading
Personal Weather Stations






























Interactive Weather Map New forecast layout! Learn more

10-Day Weather Forecast

Advertisements
Track Severe Weather on mobile